sensor_id;sensor_type;location;lat;lon;timestamp;P1;durP1;ratioP1;P2;durP2;ratioP2
17631;SDS011;8934;51.194;17.150;2023-05-10T00:02:42;9.48;;;6.00;;
17631;SDS011;8934;51.194;17.150;2023-05-10T00:05:30;10.23;;;6.18;;
17631;SDS011;8934;51.194;17.150;2023-05-10T00:08:18;10.70;;;6.00;;
17631;SDS011;8934;51.194;17.150;2023-05-10T00:11:05;10.95;;;5.88;;
17631;SDS011;8934;51.194;17.150;2023-05-10T00:13:52;10.18;;;6.32;;
17631;SDS011;8934;51.194;17.150;2023-05-10T00:16:40;9.57;;;6.55;;
17631;SDS011;8934;51.194;17.150;2023-05-10T00:19:29;11.43;;;5.93;;
17631;SDS011;8934;51.194;17.150;2023-05-10T00:22:16;10.82;;;6.30;;
17631;SDS011;8934;51.194;17.150;2023-05-10T00:25:04;8.95;;;5.65;;
17631;SDS011;8934;51.194;17.150;2023-05-10T00:27:53;9.95;;;6.38;;
17631;SDS011;8934;51.194;17.150;2023-05-10T00:30:43;11.23;;;5.90;;
17631;SDS011;8934;51.194;17.150;2023-05-10T00:33:30;8.63;;;5.65;;
17631;SDS011;8934;51.194;17.150;2023-05-10T00:36:19;9.70;;;6.50;;
17631;SDS011;8934;51.194;17.150;2023-05-10T00:39:06;7.82;;;5.28;;
17631;SDS011;8934;51.194;17.150;2023-05-10T00:41:53;9.70;;;6.15;;
17631;SDS011;8934;51.194;17.150;2023-05-10T00:44:41;10.65;;;6.18;;
17631;SDS011;8934;51.194;17.150;2023-05-10T00:47:29;10.80;;;6.00;;
17631;SDS011;8934;51.194;17.150;2023-05-10T00:50:17;7.55;;;5.75;;
17631;SDS011;8934;51.194;17.150;2023-05-10T00:53:06;8.25;;;5.90;;
17631;SDS011;8934;51.194;17.150;2023-05-10T00:55:54;7.53;;;5.80;;
17631;SDS011;8934;51.194;17.150;2023-05-10T00:58:43;8.18;;;5.45;;
17631;SDS011;8934;51.194;17.150;2023-05-10T01:01:30;9.05;;;5.65;;
17631;SDS011;8934;51.194;17.150;2023-05-10T01:04:19;8.45;;;5.45;;
17631;SDS011;8934;51.194;17.150;2023-05-10T01:07:11;7.15;;;5.82;;
17631;SDS011;8934;51.194;17.150;2023-05-10T01:10:00;11.27;;;6.47;;
17631;SDS011;8934;51.194;17.150;2023-05-10T01:12:48;11.15;;;6.45;;
17631;SDS011;8934;51.194;17.150;2023-05-10T01:15:36;10.95;;;6.45;;
17631;SDS011;8934;51.194;17.150;2023-05-10T01:18:24;8.20;;;6.13;;
17631;SDS011;8934;51.194;17.150;2023-05-10T01:21:16;11.52;;;6.68;;
17631;SDS011;8934;51.194;17.150;2023-05-10T01:28:04;8.85;;;5.90;;
17631;SDS011;8934;51.194;17.150;2023-05-10T01:34:30;10.95;;;7.10;;
17631;SDS011;8934;51.194;17.150;2023-05-10T01:37:24;11.18;;;7.43;;
17631;SDS011;8934;51.194;17.150;2023-05-10T01:40:22;13.32;;;7.65;;
17631;SDS011;8934;51.194;17.150;2023-05-10T01:43:14;11.02;;;7.18;;
17631;SDS011;8934;51.194;17.150;2023-05-10T01:46:13;8.88;;;6.63;;
17631;SDS011;8934;51.194;17.150;2023-05-10T01:49:06;12.30;;;7.38;;
17631;SDS011;8934;51.194;17.150;2023-05-10T01:51:59;12.00;;;7.95;;
17631;SDS011;8934;51.194;17.150;2023-05-10T01:54:53;13.45;;;8.05;;
17631;SDS011;8934;51.194;17.150;2023-05-10T01:57:46;10.82;;;7.30;;
17631;SDS011;8934;51.194;17.150;2023-05-10T02:00:39;12.10;;;7.30;;
17631;SDS011;8934;51.194;17.150;2023-05-10T02:03:29;9.02;;;7.00;;
17631;SDS011;8934;51.194;17.150;2023-05-10T02:06:19;13.75;;;7.85;;
17631;SDS011;8934;51.194;17.150;2023-05-10T02:09:11;11.45;;;7.47;;
17631;SDS011;8934;51.194;17.150;2023-05-10T02:11:59;13.60;;;7.65;;
17631;SDS011;8934;51.194;17.150;2023-05-10T02:14:50;12.75;;;7.00;;
17631;SDS011;8934;51.194;17.150;2023-05-10T02:17:40;15.65;;;7.20;;
17631;SDS011;8934;51.194;17.150;2023-05-10T02:20:30;12.85;;;6.82;;
17631;SDS011;8934;51.194;17.150;2023-05-10T02:23:19;9.88;;;6.38;;
17631;SDS011;8934;51.194;17.150;2023-05-10T02:26:09;9.98;;;6.55;;
17631;SDS011;8934;51.194;17.150;2023-05-10T02:29:00;10.98;;;6.75;;
17631;SDS011;8934;51.194;17.150;2023-05-10T02:31:50;10.23;;;6.32;;
17631;SDS011;8934;51.194;17.150;2023-05-10T02:34:39;9.40;;;6.45;;
17631;SDS011;8934;51.194;17.150;2023-05-10T02:37:28;11.27;;;6.50;;
17631;SDS011;8934;51.194;17.150;2023-05-10T02:40:16;9.68;;;6.57;;
17631;SDS011;8934;51.194;17.150;2023-05-10T02:43:08;9.75;;;7.10;;
17631;SDS011;8934;51.194;17.150;2023-05-10T02:45:59;10.20;;;6.28;;
17631;SDS011;8934;51.194;17.150;2023-05-10T02:48:47;10.10;;;6.10;;
17631;SDS011;8934;51.194;17.150;2023-05-10T02:51:35;9.85;;;6.82;;
17631;SDS011;8934;51.194;17.150;2023-05-10T02:54:29;11.15;;;6.55;;
17631;SDS011;8934;51.194;17.150;2023-05-10T02:57:22;10.60;;;6.55;;
17631;SDS011;8934;51.194;17.150;2023-05-10T03:00:15;11.93;;;7.05;;
17631;SDS011;8934;51.194;17.150;2023-05-10T03:03:03;12.32;;;6.70;;
17631;SDS011;8934;51.194;17.150;2023-05-10T03:05:51;13.20;;;7.45;;
17631;SDS011;8934;51.194;17.150;2023-05-10T03:08:42;11.00;;;6.88;;
17631;SDS011;8934;51.194;17.150;2023-05-10T03:11:43;10.98;;;6.75;;
17631;SDS011;8934;51.194;17.150;2023-05-10T03:14:43;12.02;;;7.20;;
17631;SDS011;8934;51.194;17.150;2023-05-10T03:17:44;13.00;;;7.72;;
17631;SDS011;8934;51.194;17.150;2023-05-10T03:20:35;11.98;;;6.93;;
17631;SDS011;8934;51.194;17.150;2023-05-10T03:23:26;12.00;;;6.22;;
17631;SDS011;8934;51.194;17.150;2023-05-10T03:26:23;10.77;;;6.82;;
17631;SDS011;8934;51.194;17.150;2023-05-10T03:29:21;11.15;;;6.95;;
17631;SDS011;8934;51.194;17.150;2023-05-10T03:32:10;11.13;;;6.68;;
17631;SDS011;8934;51.194;17.150;2023-05-10T03:34:59;8.98;;;6.80;;
17631;SDS011;8934;51.194;17.150;2023-05-10T03:37:48;8.35;;;5.85;;
17631;SDS011;8934;51.194;17.150;2023-05-10T03:40:35;11.98;;;6.55;;
17631;SDS011;8934;51.194;17.150;2023-05-10T03:43:23;8.63;;;6.07;;
17631;SDS011;8934;51.194;17.150;2023-05-10T03:46:10;9.88;;;5.88;;
17631;SDS011;8934;51.194;17.150;2023-05-10T03:48:58;10.02;;;5.78;;
17631;SDS011;8934;51.194;17.150;2023-05-10T03:51:48;8.43;;;6.20;;
17631;SDS011;8934;51.194;17.150;2023-05-10T03:54:36;9.93;;;5.80;;
17631;SDS011;8934;51.194;17.150;2023-05-10T03:57:24;10.02;;;6.15;;
17631;SDS011;8934;51.194;17.150;2023-05-10T04:00:12;10.38;;;5.75;;
17631;SDS011;8934;51.194;17.150;2023-05-10T04:03:00;9.38;;;6.22;;
17631;SDS011;8934;51.194;17.150;2023-05-10T04:05:48;8.75;;;5.20;;
17631;SDS011;8934;51.194;17.150;2023-05-10T04:08:37;11.18;;;6.03;;
17631;SDS011;8934;51.194;17.150;2023-05-10T04:11:25;9.18;;;6.05;;
17631;SDS011;8934;51.194;17.150;2023-05-10T04:14:12;9.70;;;5.82;;
17631;SDS011;8934;51.194;17.150;2023-05-10T04:17:00;8.15;;;5.30;;
17631;SDS011;8934;51.194;17.150;2023-05-10T04:19:47;10.98;;;6.78;;
17631;SDS011;8934;51.194;17.150;2023-05-10T04:22:35;13.35;;;6.63;;
17631;SDS011;8934;51.194;17.150;2023-05-10T04:25:24;8.90;;;5.00;;
17631;SDS011;8934;51.194;17.150;2023-05-10T04:28:11;8.57;;;4.85;;
17631;SDS011;8934;51.194;17.150;2023-05-10T04:31:02;9.13;;;5.25;;
17631;SDS011;8934;51.194;17.150;2023-05-10T04:33:50;12.32;;;6.13;;
17631;SDS011;8934;51.194;17.150;2023-05-10T04:36:38;9.63;;;5.57;;
17631;SDS011;8934;51.194;17.150;2023-05-10T04:39:26;11.45;;;5.95;;
17631;SDS011;8934;51.194;17.150;2023-05-10T04:42:14;9.93;;;5.97;;
17631;SDS011;8934;51.194;17.150;2023-05-10T04:45:02;9.50;;;5.78;;
17631;SDS011;8934;51.194;17.150;2023-05-10T04:47:50;9.45;;;5.20;;
17631;SDS011;8934;51.194;17.150;2023-05-10T04:50:38;12.00;;;5.50;;
17631;SDS011;8934;51.194;17.150;2023-05-10T04:53:26;7.93;;;5.32;;
17631;SDS011;8934;51.194;17.150;2023-05-10T04:56:13;9.05;;;5.53;;
17631;SDS011;8934;51.194;17.150;2023-05-10T04:59:03;9.27;;;5.55;;
17631;SDS011;8934;51.194;17.150;2023-05-10T05:01:50;9.02;;;5.15;;
17631;SDS011;8934;51.194;17.150;2023-05-10T05:04:38;11.70;;;5.72;;
17631;SDS011;8934;51.194;17.150;2023-05-10T05:07:26;11.23;;;5.68;;
17631;SDS011;8934;51.194;17.150;2023-05-10T05:10:14;11.73;;;6.18;;
17631;SDS011;8934;51.194;17.150;2023-05-10T05:13:02;9.40;;;5.75;;
17631;SDS011;8934;51.194;17.150;2023-05-10T05:15:51;8.18;;;5.53;;
17631;SDS011;8934;51.194;17.150;2023-05-10T05:18:39;10.07;;;5.38;;
17631;SDS011;8934;51.194;17.150;2023-05-10T05:21:26;10.23;;;6.00;;
17631;SDS011;8934;51.194;17.150;2023-05-10T05:24:14;8.68;;;5.30;;
17631;SDS011;8934;51.194;17.150;2023-05-10T05:27:02;9.23;;;5.03;;
17631;SDS011;8934;51.194;17.150;2023-05-10T05:29:50;10.10;;;5.28;;
17631;SDS011;8934;51.194;17.150;2023-05-10T05:32:40;9.10;;;4.97;;
17631;SDS011;8934;51.194;17.150;2023-05-10T05:35:28;7.82;;;5.10;;
17631;SDS011;8934;51.194;17.150;2023-05-10T05:38:16;9.43;;;4.85;;
17631;SDS011;8934;51.194;17.150;2023-05-10T05:41:04;7.70;;;4.82;;
17631;SDS011;8934;51.194;17.150;2023-05-10T05:43:51;7.25;;;4.97;;
17631;SDS011;8934;51.194;17.150;2023-05-10T05:46:39;10.10;;;5.00;;
17631;SDS011;8934;51.194;17.150;2023-05-10T05:49:28;6.78;;;5.00;;
17631;SDS011;8934;51.194;17.150;2023-05-10T05:52:16;7.68;;;4.90;;
17631;SDS011;8934;51.194;17.150;2023-05-10T05:55:03;8.13;;;4.55;;
17631;SDS011;8934;51.194;17.150;2023-05-10T05:57:51;9.00;;;4.88;;
17631;SDS011;8934;51.194;17.150;2023-05-10T06:00:39;8.23;;;5.03;;
17631;SDS011;8934;51.194;17.150;2023-05-10T06:03:27;7.57;;;4.40;;
17631;SDS011;8934;51.194;17.150;2023-05-10T06:06:16;7.28;;;4.70;;
17631;SDS011;8934;51.194;17.150;2023-05-10T06:09:04;6.03;;;3.83;;
17631;SDS011;8934;51.194;17.150;2023-05-10T06:11:52;9.40;;;4.75;;
17631;SDS011;8934;51.194;17.150;2023-05-10T06:14:40;10.80;;;4.03;;
17631;SDS011;8934;51.194;17.150;2023-05-10T06:17:27;5.00;;;3.97;;
17631;SDS011;8934;51.194;17.150;2023-05-10T06:20:14;7.00;;;3.78;;
17631;SDS011;8934;51.194;17.150;2023-05-10T06:23:03;5.53;;;4.25;;
17631;SDS011;8934;51.194;17.150;2023-05-10T06:25:51;7.18;;;3.38;;
17631;SDS011;8934;51.194;17.150;2023-05-10T06:28:39;8.60;;;4.68;;
17631;SDS011;8934;51.194;17.150;2023-05-10T06:31:26;7.68;;;4.20;;
17631;SDS011;8934;51.194;17.150;2023-05-10T06:34:14;5.72;;;3.63;;
17631;SDS011;8934;51.194;17.150;2023-05-10T06:37:02;7.68;;;4.55;;
17631;SDS011;8934;51.194;17.150;2023-05-10T06:39:51;7.47;;;4.25;;
17631;SDS011;8934;51.194;17.150;2023-05-10T06:42:39;7.80;;;3.88;;
17631;SDS011;8934;51.194;17.150;2023-05-10T06:45:27;6.57;;;4.00;;
17631;SDS011;8934;51.194;17.150;2023-05-10T06:48:14;6.30;;;3.80;;
17631;SDS011;8934;51.194;17.150;2023-05-10T06:51:02;5.93;;;3.30;;
17631;SDS011;8934;51.194;17.150;2023-05-10T06:53:50;6.15;;;3.70;;
17631;SDS011;8934;51.194;17.150;2023-05-10T06:56:39;5.82;;;3.45;;
17631;SDS011;8934;51.194;17.150;2023-05-10T06:59:26;4.60;;;3.85;;
17631;SDS011;8934;51.194;17.150;2023-05-10T07:02:14;4.63;;;3.20;;
17631;SDS011;8934;51.194;17.150;2023-05-10T07:05:02;4.45;;;3.13;;
17631;SDS011;8934;51.194;17.150;2023-05-10T07:07:50;5.13;;;3.20;;
17631;SDS011;8934;51.194;17.150;2023-05-10T07:10:38;4.55;;;3.10;;
17631;SDS011;8934;51.194;17.150;2023-05-10T07:13:27;6.47;;;3.13;;
17631;SDS011;8934;51.194;17.150;2023-05-10T07:16:15;3.85;;;3.00;;
17631;SDS011;8934;51.194;17.150;2023-05-10T07:19:02;5.22;;;2.70;;
17631;SDS011;8934;51.194;17.150;2023-05-10T07:21:51;5.57;;;3.10;;
17631;SDS011;8934;51.194;17.150;2023-05-10T07:24:38;6.50;;;3.03;;
17631;SDS011;8934;51.194;17.150;2023-05-10T07:27:25;5.22;;;2.88;;
17631;SDS011;8934;51.194;17.150;2023-05-10T07:30:14;3.85;;;2.67;;
17631;SDS011;8934;51.194;17.150;2023-05-10T07:33:02;4.68;;;3.10;;
17631;SDS011;8934;51.194;17.150;2023-05-10T07:35:50;5.00;;;2.90;;
17631;SDS011;8934;51.194;17.150;2023-05-10T07:38:37;6.50;;;3.22;;
17631;SDS011;8934;51.194;17.150;2023-05-10T07:41:26;8.88;;;3.20;;
17631;SDS011;8934;51.194;17.150;2023-05-10T07:44:13;5.82;;;3.38;;
17631;SDS011;8934;51.194;17.150;2023-05-10T07:47:05;4.25;;;2.90;;
17631;SDS011;8934;51.194;17.150;2023-05-10T07:49:52;5.38;;;3.13;;
17631;SDS011;8934;51.194;17.150;2023-05-10T07:52:40;5.80;;;3.25;;
17631;SDS011;8934;51.194;17.150;2023-05-10T07:55:27;8.25;;;3.40;;
17631;SDS011;8934;51.194;17.150;2023-05-10T07:58:15;5.97;;;3.42;;
17631;SDS011;8934;51.194;17.150;2023-05-10T08:01:03;4.03;;;3.15;;
17631;SDS011;8934;51.194;17.150;2023-05-10T08:03:52;4.72;;;2.85;;
17631;SDS011;8934;51.194;17.150;2023-05-10T08:06:40;4.88;;;3.17;;
17631;SDS011;8934;51.194;17.150;2023-05-10T08:09:27;6.57;;;3.45;;
17631;SDS011;8934;51.194;17.150;2023-05-10T08:12:14;7.75;;;3.70;;
17631;SDS011;8934;51.194;17.150;2023-05-10T08:15:02;7.00;;;3.10;;
17631;SDS011;8934;51.194;17.150;2023-05-10T08:17:50;3.95;;;2.72;;
17631;SDS011;8934;51.194;17.150;2023-05-10T08:20:40;5.30;;;3.17;;
17631;SDS011;8934;51.194;17.150;2023-05-10T08:23:27;3.78;;;2.90;;
17631;SDS011;8934;51.194;17.150;2023-05-10T08:26:15;4.47;;;2.80;;
17631;SDS011;8934;51.194;17.150;2023-05-10T08:29:03;6.93;;;3.30;;
17631;SDS011;8934;51.194;17.150;2023-05-10T08:31:50;6.07;;;3.20;;
17631;SDS011;8934;51.194;17.150;2023-05-10T08:34:38;6.15;;;3.30;;
17631;SDS011;8934;51.194;17.150;2023-05-10T08:37:27;6.32;;;3.40;;
17631;SDS011;8934;51.194;17.150;2023-05-10T08:40:18;6.05;;;2.90;;
17631;SDS011;8934;51.194;17.150;2023-05-10T08:43:07;4.40;;;2.92;;
17631;SDS011;8934;51.194;17.150;2023-05-10T08:45:56;5.57;;;3.05;;
17631;SDS011;8934;51.194;17.150;2023-05-10T08:48:47;4.93;;;3.08;;
17631;SDS011;8934;51.194;17.150;2023-05-10T08:51:37;4.55;;;2.90;;
17631;SDS011;8934;51.194;17.150;2023-05-10T08:54:32;5.22;;;2.70;;
17631;SDS011;8934;51.194;17.150;2023-05-10T08:57:21;4.13;;;2.90;;
17631;SDS011;8934;51.194;17.150;2023-05-10T09:00:09;4.90;;;2.80;;
17631;SDS011;8934;51.194;17.150;2023-05-10T09:02:57;4.88;;;2.72;;
17631;SDS011;8934;51.194;17.150;2023-05-10T09:05:46;6.72;;;3.20;;
17631;SDS011;8934;51.194;17.150;2023-05-10T09:08:34;5.80;;;3.08;;
17631;SDS011;8934;51.194;17.150;2023-05-10T09:11:25;4.15;;;2.50;;
17631;SDS011;8934;51.194;17.150;2023-05-10T09:14:14;6.15;;;2.90;;
17631;SDS011;8934;51.194;17.150;2023-05-10T09:17:02;3.50;;;2.90;;
17631;SDS011;8934;51.194;17.150;2023-05-10T09:19:56;4.68;;;2.85;;
17631;SDS011;8934;51.194;17.150;2023-05-10T09:22:46;5.28;;;2.95;;
17631;SDS011;8934;51.194;17.150;2023-05-10T09:25:33;3.22;;;2.83;;
17631;SDS011;8934;51.194;17.150;2023-05-10T09:28:22;2.78;;;2.42;;
17631;SDS011;8934;51.194;17.150;2023-05-10T09:31:10;3.65;;;2.55;;
17631;SDS011;8934;51.194;17.150;2023-05-10T09:33:58;4.13;;;2.80;;
17631;SDS011;8934;51.194;17.150;2023-05-10T09:36:52;4.82;;;2.38;;
17631;SDS011;8934;51.194;17.150;2023-05-10T09:39:41;2.75;;;2.40;;
17631;SDS011;8934;51.194;17.150;2023-05-10T09:42:29;6.15;;;2.95;;
17631;SDS011;8934;51.194;17.150;2023-05-10T09:45:18;4.65;;;2.38;;
17631;SDS011;8934;51.194;17.150;2023-05-10T09:48:06;6.22;;;3.03;;
17631;SDS011;8934;51.194;17.150;2023-05-10T09:50:56;3.72;;;2.50;;
17631;SDS011;8934;51.194;17.150;2023-05-10T09:53:44;6.68;;;2.58;;
17631;SDS011;8934;51.194;17.150;2023-05-10T09:56:32;3.78;;;2.28;;
17631;SDS011;8934;51.194;17.150;2023-05-10T09:59:20;3.53;;;2.63;;
17631;SDS011;8934;51.194;17.150;2023-05-10T10:02:09;4.30;;;2.95;;
17631;SDS011;8934;51.194;17.150;2023-05-10T10:04:57;5.88;;;2.60;;
17631;SDS011;8934;51.194;17.150;2023-05-10T10:07:47;5.20;;;2.47;;
17631;SDS011;8934;51.194;17.150;2023-05-10T10:10:36;4.65;;;2.10;;
17631;SDS011;8934;51.194;17.150;2023-05-10T10:13:24;8.80;;;3.17;;
17631;SDS011;8934;51.194;17.150;2023-05-10T10:16:11;5.57;;;2.63;;
17631;SDS011;8934;51.194;17.150;2023-05-10T10:19:01;3.63;;;2.58;;
17631;SDS011;8934;51.194;17.150;2023-05-10T10:21:49;4.53;;;2.30;;
17631;SDS011;8934;51.194;17.150;2023-05-10T10:24:37;4.32;;;2.70;;
17631;SDS011;8934;51.194;17.150;2023-05-10T10:27:26;3.28;;;2.50;;
17631;SDS011;8934;51.194;17.150;2023-05-10T10:30:23;4.28;;;2.60;;
17631;SDS011;8934;51.194;17.150;2023-05-10T10:33:23;4.30;;;2.22;;
17631;SDS011;8934;51.194;17.150;2023-05-10T10:36:24;4.55;;;2.75;;
17631;SDS011;8934;51.194;17.150;2023-05-10T10:39:13;4.18;;;2.70;;
17631;SDS011;8934;51.194;17.150;2023-05-10T10:42:01;3.38;;;2.40;;
17631;SDS011;8934;51.194;17.150;2023-05-10T10:44:49;3.22;;;2.17;;
17631;SDS011;8934;51.194;17.150;2023-05-10T10:51:07;3.20;;;2.60;;
17631;SDS011;8934;51.194;17.150;2023-05-10T10:53:58;3.08;;;2.25;;
17631;SDS011;8934;51.194;17.150;2023-05-10T10:57:12;4.80;;;2.88;;
17631;SDS011;8934;51.194;17.150;2023-05-10T11:03:09;6.07;;;2.40;;
17631;SDS011;8934;51.194;17.150;2023-05-10T11:06:00;2.95;;;2.28;;
17631;SDS011;8934;51.194;17.150;2023-05-10T11:08:48;3.70;;;2.58;;
17631;SDS011;8934;51.194;17.150;2023-05-10T11:11:38;2.65;;;2.17;;
17631;SDS011;8934;51.194;17.150;2023-05-10T11:14:36;3.75;;;2.53;;
17631;SDS011;8934;51.194;17.150;2023-05-10T11:17:24;3.47;;;2.47;;
17631;SDS011;8934;51.194;17.150;2023-05-10T11:20:13;6.13;;;2.60;;
17631;SDS011;8934;51.194;17.150;2023-05-10T11:23:10;3.85;;;2.25;;
17631;SDS011;8934;51.194;17.150;2023-05-10T11:26:01;4.47;;;2.55;;
17631;SDS011;8934;51.194;17.150;2023-05-10T11:28:51;4.68;;;2.40;;
17631;SDS011;8934;51.194;17.150;2023-05-10T11:31:41;4.88;;;2.60;;
17631;SDS011;8934;51.194;17.150;2023-05-10T11:34:31;2.97;;;2.55;;
17631;SDS011;8934;51.194;17.150;2023-05-10T11:37:20;3.33;;;2.30;;
17631;SDS011;8934;51.194;17.150;2023-05-10T11:40:08;9.50;;;2.80;;
17631;SDS011;8934;51.194;17.150;2023-05-10T11:42:57;7.43;;;2.47;;
17631;SDS011;8934;51.194;17.150;2023-05-10T11:45:46;3.90;;;2.47;;
17631;SDS011;8934;51.194;17.150;2023-05-10T11:48:34;2.53;;;2.33;;
17631;SDS011;8934;51.194;17.150;2023-05-10T11:51:22;4.40;;;2.42;;
17631;SDS011;8934;51.194;17.150;2023-05-10T11:54:10;5.38;;;2.35;;
17631;SDS011;8934;51.194;17.150;2023-05-10T11:56:58;6.10;;;1.80;;
17631;SDS011;8934;51.194;17.150;2023-05-10T11:59:47;2.88;;;2.10;;
17631;SDS011;8934;51.194;17.150;2023-05-10T12:02:37;4.82;;;1.98;;
17631;SDS011;8934;51.194;17.150;2023-05-10T12:05:25;6.38;;;2.38;;
17631;SDS011;8934;51.194;17.150;2023-05-10T12:08:14;3.80;;;2.08;;
17631;SDS011;8934;51.194;17.150;2023-05-10T12:11:05;3.08;;;2.00;;
17631;SDS011;8934;51.194;17.150;2023-05-10T12:13:54;2.92;;;1.95;;
17631;SDS011;8934;51.194;17.150;2023-05-10T12:16:42;3.53;;;2.35;;
17631;SDS011;8934;51.194;17.150;2023-05-10T12:19:37;3.22;;;2.20;;
17631;SDS011;8934;51.194;17.150;2023-05-10T12:22:25;4.40;;;1.90;;
17631;SDS011;8934;51.194;17.150;2023-05-10T12:25:13;5.72;;;2.00;;
17631;SDS011;8934;51.194;17.150;2023-05-10T12:28:02;3.33;;;2.10;;
17631;SDS011;8934;51.194;17.150;2023-05-10T12:31:09;3.88;;;2.15;;
17631;SDS011;8934;51.194;17.150;2023-05-10T12:33:56;4.10;;;1.90;;
17631;SDS011;8934;51.194;17.150;2023-05-10T12:36:45;3.65;;;1.95;;
17631;SDS011;8934;51.194;17.150;2023-05-10T12:39:40;4.05;;;1.92;;
17631;SDS011;8934;51.194;17.150;2023-05-10T12:42:28;6.22;;;1.63;;
17631;SDS011;8934;51.194;17.150;2023-05-10T12:45:17;5.28;;;2.20;;
17631;SDS011;8934;51.194;17.150;2023-05-10T12:48:05;4.38;;;2.03;;
17631;SDS011;8934;51.194;17.150;2023-05-10T12:50:52;6.65;;;2.30;;
17631;SDS011;8934;51.194;17.150;2023-05-10T12:53:41;6.75;;;1.90;;
17631;SDS011;8934;51.194;17.150;2023-05-10T12:56:34;3.05;;;2.10;;
17631;SDS011;8934;51.194;17.150;2023-05-10T12:59:22;3.63;;;1.73;;
17631;SDS011;8934;51.194;17.150;2023-05-10T13:02:10;3.00;;;2.00;;
17631;SDS011;8934;51.194;17.150;2023-05-10T13:04:58;5.68;;;2.38;;
17631;SDS011;8934;51.194;17.150;2023-05-10T13:07:45;6.00;;;2.10;;
17631;SDS011;8934;51.194;17.150;2023-05-10T13:10:34;4.45;;;1.90;;
17631;SDS011;8934;51.194;17.150;2023-05-10T13:13:22;2.65;;;1.98;;
17631;SDS011;8934;51.194;17.150;2023-05-10T13:16:10;4.10;;;2.20;;
17631;SDS011;8934;51.194;17.150;2023-05-10T13:18:57;3.05;;;1.80;;
17631;SDS011;8934;51.194;17.150;2023-05-10T13:21:45;3.05;;;1.70;;
17631;SDS011;8934;51.194;17.150;2023-05-10T13:24:32;5.07;;;2.15;;
17631;SDS011;8934;51.194;17.150;2023-05-10T13:27:21;3.40;;;2.05;;
17631;SDS011;8934;51.194;17.150;2023-05-10T13:30:09;2.08;;;1.73;;
17631;SDS011;8934;51.194;17.150;2023-05-10T13:32:57;3.65;;;1.67;;
17631;SDS011;8934;51.194;17.150;2023-05-10T13:35:45;2.88;;;1.70;;
17631;SDS011;8934;51.194;17.150;2023-05-10T13:38:32;2.75;;;1.80;;
17631;SDS011;8934;51.194;17.150;2023-05-10T13:41:20;3.80;;;1.40;;
17631;SDS011;8934;51.194;17.150;2023-05-10T13:44:09;1.95;;;1.70;;
17631;SDS011;8934;51.194;17.150;2023-05-10T13:46:58;2.75;;;1.60;;
17631;SDS011;8934;51.194;17.150;2023-05-10T13:49:46;3.15;;;1.70;;
17631;SDS011;8934;51.194;17.150;2023-05-10T13:52:33;3.72;;;1.88;;
17631;SDS011;8934;51.194;17.150;2023-05-10T13:55:21;5.80;;;1.90;;
17631;SDS011;8934;51.194;17.150;2023-05-10T13:58:08;2.63;;;1.73;;
17631;SDS011;8934;51.194;17.150;2023-05-10T14:00:57;3.13;;;1.48;;
17631;SDS011;8934;51.194;17.150;2023-05-10T14:03:45;3.42;;;1.60;;
17631;SDS011;8934;51.194;17.150;2023-05-10T14:06:34;4.88;;;1.95;;
17631;SDS011;8934;51.194;17.150;2023-05-10T14:09:22;2.63;;;1.63;;
17631;SDS011;8934;51.194;17.150;2023-05-10T14:12:09;3.33;;;1.65;;
17631;SDS011;8934;51.194;17.150;2023-05-10T14:14:57;4.60;;;2.03;;
17631;SDS011;8934;51.194;17.150;2023-05-10T14:17:46;4.10;;;1.70;;
17631;SDS011;8934;51.194;17.150;2023-05-10T14:20:34;3.75;;;1.77;;
17631;SDS011;8934;51.194;17.150;2023-05-10T14:23:21;4.00;;;1.83;;
17631;SDS011;8934;51.194;17.150;2023-05-10T14:26:10;3.25;;;1.90;;
17631;SDS011;8934;51.194;17.150;2023-05-10T14:28:58;7.75;;;2.20;;
17631;SDS011;8934;51.194;17.150;2023-05-10T14:31:45;1.33;;;1.23;;
17631;SDS011;8934;51.194;17.150;2023-05-10T14:34:34;2.85;;;1.60;;
17631;SDS011;8934;51.194;17.150;2023-05-10T14:37:22;3.97;;;1.40;;
17631;SDS011;8934;51.194;17.150;2023-05-10T14:40:10;5.13;;;1.80;;
17631;SDS011;8934;51.194;17.150;2023-05-10T14:43:00;3.97;;;1.65;;
17631;SDS011;8934;51.194;17.150;2023-05-10T14:45:47;2.33;;;1.30;;
17631;SDS011;8934;51.194;17.150;2023-05-10T14:48:35;1.58;;;1.48;;
17631;SDS011;8934;51.194;17.150;2023-05-10T14:51:24;1.95;;;1.45;;
17631;SDS011;8934;51.194;17.150;2023-05-10T14:54:11;2.28;;;1.90;;
17631;SDS011;8934;51.194;17.150;2023-05-10T14:56:59;2.50;;;1.60;;
17631;SDS011;8934;51.194;17.150;2023-05-10T14:59:47;4.50;;;1.75;;
17631;SDS011;8934;51.194;17.150;2023-05-10T15:02:35;6.95;;;2.30;;
17631;SDS011;8934;51.194;17.150;2023-05-10T15:05:23;8.85;;;2.03;;
17631;SDS011;8934;51.194;17.150;2023-05-10T15:08:13;2.75;;;2.08;;
17631;SDS011;8934;51.194;17.150;2023-05-10T15:11:01;3.15;;;1.52;;
17631;SDS011;8934;51.194;17.150;2023-05-10T15:13:48;3.85;;;1.98;;
17631;SDS011;8934;51.194;17.150;2023-05-10T15:16:36;3.08;;;1.67;;
17631;SDS011;8934;51.194;17.150;2023-05-10T15:19:24;3.25;;;1.40;;
17631;SDS011;8934;51.194;17.150;2023-05-10T15:22:11;2.10;;;1.85;;
17631;SDS011;8934;51.194;17.150;2023-05-10T15:25:01;3.08;;;1.50;;
17631;SDS011;8934;51.194;17.150;2023-05-10T15:27:48;3.75;;;1.60;;
17631;SDS011;8934;51.194;17.150;2023-05-10T15:30:36;2.60;;;1.38;;
17631;SDS011;8934;51.194;17.150;2023-05-10T15:33:24;4.70;;;1.70;;
17631;SDS011;8934;51.194;17.150;2023-05-10T15:36:12;1.92;;;1.73;;
17631;SDS011;8934;51.194;17.150;2023-05-10T15:39:00;2.35;;;1.80;;
17631;SDS011;8934;51.194;17.150;2023-05-10T15:41:50;1.52;;;1.42;;
17631;SDS011;8934;51.194;17.150;2023-05-10T15:44:38;4.80;;;1.65;;
17631;SDS011;8934;51.194;17.150;2023-05-10T15:47:25;5.85;;;1.70;;
17631;SDS011;8934;51.194;17.150;2023-05-10T15:50:13;2.63;;;1.55;;
17631;SDS011;8934;51.194;17.150;2023-05-10T15:53:01;5.38;;;1.70;;
17631;SDS011;8934;51.194;17.150;2023-05-10T15:55:49;3.38;;;1.77;;
17631;SDS011;8934;51.194;17.150;2023-05-10T15:58:39;2.83;;;1.58;;
17631;SDS011;8934;51.194;17.150;2023-05-10T16:01:28;2.17;;;1.55;;
17631;SDS011;8934;51.194;17.150;2023-05-10T16:04:17;2.17;;;1.58;;
17631;SDS011;8934;51.194;17.150;2023-05-10T16:07:04;2.78;;;1.40;;
17631;SDS011;8934;51.194;17.150;2023-05-10T16:09:52;3.85;;;1.73;;
17631;SDS011;8934;51.194;17.150;2023-05-10T16:12:40;1.73;;;1.42;;
17631;SDS011;8934;51.194;17.150;2023-05-10T16:15:29;2.28;;;1.30;;
17631;SDS011;8934;51.194;17.150;2023-05-10T16:18:17;1.80;;;1.55;;
17631;SDS011;8934;51.194;17.150;2023-05-10T16:21:04;2.28;;;1.75;;
17631;SDS011;8934;51.194;17.150;2023-05-10T16:23:52;2.03;;;1.67;;
17631;SDS011;8934;51.194;17.150;2023-05-10T16:26:40;4.40;;;1.98;;
17631;SDS011;8934;51.194;17.150;2023-05-10T16:29:27;4.05;;;2.00;;
17631;SDS011;8934;51.194;17.150;2023-05-10T16:32:18;3.35;;;2.42;;
17631;SDS011;8934;51.194;17.150;2023-05-10T16:35:06;2.92;;;2.00;;
17631;SDS011;8934;51.194;17.150;2023-05-10T16:37:54;2.40;;;2.20;;
17631;SDS011;8934;51.194;17.150;2023-05-10T16:40:43;8.13;;;2.63;;
17631;SDS011;8934;51.194;17.150;2023-05-10T16:43:31;2.53;;;2.30;;
17631;SDS011;8934;51.194;17.150;2023-05-10T16:46:19;6.25;;;2.42;;
17631;SDS011;8934;51.194;17.150;2023-05-10T16:49:08;6.57;;;2.88;;
17631;SDS011;8934;51.194;17.150;2023-05-10T16:51:57;3.58;;;2.65;;
17631;SDS011;8934;51.194;17.150;2023-05-10T16:54:45;7.72;;;3.40;;
17631;SDS011;8934;51.194;17.150;2023-05-10T16:57:33;9.13;;;3.22;;
17631;SDS011;8934;51.194;17.150;2023-05-10T17:00:21;5.50;;;2.97;;
17631;SDS011;8934;51.194;17.150;2023-05-10T17:03:08;3.13;;;2.40;;
17631;SDS011;8934;51.194;17.150;2023-05-10T17:05:58;3.65;;;2.15;;
17631;SDS011;8934;51.194;17.150;2023-05-10T17:08:45;5.03;;;2.40;;
17631;SDS011;8934;51.194;17.150;2023-05-10T17:11:33;7.38;;;3.45;;